Time;durP1;ratioP1;P1;durP2;ratioP2;P2;SDS_P1;SDS_P2;PMS_P1;PMS_P2;Temp;Humidity;BMP_temperature;BMP_pressure;BME280_temperature;BME280_humidity;BME280_pressure;Samples;Min_cycle;Max_cycle;Signal;HPM_P1;HPM_P2
2022/08/21 00:01:44;;;;;;;10.75;6.63;;;;;;;;;;5053116;28;20413;-75
2022/08/21 00:04:11;;;;;;;13.20;6.20;;;;;;;;;;5053107;28;20063;-75
2022/08/21 00:06:37;;;;;;;11.20;6.22;;;;;;;;;;5053821;28;20596;-74
2022/08/21 00:09:05;;;;;;;13.43;6.35;;;;;;;;;;5052970;28;20545;-77
2022/08/21 00:11:31;;;;;;;10.73;5.57;;;;;;;;;;5053260;28;20040;-75
2022/08/21 00:13:57;;;;;;;10.75;5.95;;;;;;;;;;5052825;28;20051;-76
2022/08/21 00:16:23;;;;;;;10.02;5.07;;;;;;;;;;5036052;28;20124;-76
2022/08/21 00:18:50;;;;;;;9.68;5.90;;;;;;;;;;5052619;28;20094;-76
2022/08/21 00:21:16;;;;;;;10.70;6.05;;;;;;;;;;5052621;28;20440;-76
2022/08/21 00:23:43;;;;;;;13.32;6.78;;;;;;;;;;5053784;28;20051;-76
2022/08/21 00:26:09;;;;;;;10.20;6.40;;;;;;;;;;5035157;28;20041;-76
2022/08/21 00:28:35;;;;;;;10.93;6.10;;;;;;;;;;5052342;28;20049;-76
2022/08/21 00:31:03;;;;;;;11.90;6.90;;;;;;;;;;5051463;28;20094;-76
2022/08/21 00:33:30;;;;;;;11.02;6.43;;;;;;;;;;5052303;28;20056;-76
2022/08/21 00:35:56;;;;;;;12.02;6.75;;;;;;;;;;5051657;28;20079;-77
2022/08/21 00:38:22;;;;;;;11.63;6.47;;;;;;;;;;5052034;28;20040;-77
2022/08/21 00:40:53;;;;;;;12.05;7.05;;;;;;;;;;5035102;28;20052;-76
2022/08/21 00:43:21;;;;;;;11.45;6.57;;;;;;;;;;5051518;28;20052;-76
2022/08/21 00:45:48;;;;;;;11.77;6.80;;;;;;;;;;5051712;28;20515;-76
2022/08/21 00:48:14;;;;;;;12.90;6.18;;;;;;;;;;5051308;28;20052;-76
2022/08/21 00:50:43;;;;;;;12.80;7.03;;;;;;;;;;5034996;28;20122;-76
2022/08/21 00:53:10;;;;;;;11.55;6.80;;;;;;;;;;5034578;28;20519;-76
2022/08/21 00:55:36;;;;;;;12.15;6.93;;;;;;;;;;5051156;28;20116;-76
2022/08/21 00:58:04;;;;;;;9.60;6.38;;;;;;;;;;5051286;28;20083;-76
2022/08/21 01:00:33;;;;;;;13.75;7.00;;;;;;;;;;5051576;28;20037;-76
2022/08/21 01:03:00;;;;;;;14.98;7.35;;;;;;;;;;5051694;28;20041;-76
2022/08/21 01:05:26;;;;;;;9.32;6.50;;;;;;;;;;5035053;28;20033;-76
2022/08/21 01:07:53;;;;;;;11.70;7.22;;;;;;;;;;5051417;28;20072;-76
2022/08/21 01:10:19;;;;;;;14.02;7.05;;;;;;;;;;5050927;28;20052;-76
2022/08/21 01:12:45;;;;;;;11.07;6.97;;;;;;;;;;5034757;28;20049;-76
2022/08/21 01:15:15;;;;;;;10.43;5.90;;;;;;;;;;5034317;28;20049;-76
2022/08/21 01:17:41;;;;;;;11.32;6.32;;;;;;;;;;5034689;28;20045;-76
2022/08/21 01:20:09;;;;;;;11.63;6.55;;;;;;;;;;5034650;28;20043;-76
2022/08/21 01:22:35;;;;;;;12.52;6.82;;;;;;;;;;5050976;28;20167;-77
2022/08/21 01:25:02;;;;;;;11.95;6.70;;;;;;;;;;5051126;28;20051;-76
2022/08/21 01:27:28;;;;;;;14.75;6.63;;;;;;;;;;5050901;28;20039;-76
2022/08/21 01:30:01;;;;;;;9.45;6.28;;;;;;;;;;5034792;28;20541;-76
2022/08/21 01:32:27;;;;;;;14.02;6.72;;;;;;;;;;5034324;28;20493;-76
2022/08/21 01:34:54;;;;;;;11.25;6.18;;;;;;;;;;5050932;28;20051;-76
2022/08/21 01:37:20;;;;;;;13.23;6.60;;;;;;;;;;5050402;28;20102;-76
2022/08/21 01:39:47;;;;;;;13.00;6.43;;;;;;;;;;5050973;28;20041;-77
2022/08/21 01:42:13;;;;;;;13.10;7.18;;;;;;;;;;5050555;28;20068;-77
2022/08/21 01:44:40;;;;;;;13.15;7.22;;;;;;;;;;5051096;28;20405;-77
2022/08/21 01:47:07;;;;;;;12.13;7.20;;;;;;;;;;5050513;28;20048;-77
2022/08/21 01:49:34;;;;;;;15.60;7.15;;;;;;;;;;5050778;28;20148;-77
2022/08/21 01:52:01;;;;;;;14.63;7.43;;;;;;;;;;5034492;28;20576;-77
2022/08/21 01:54:27;;;;;;;13.43;7.53;;;;;;;;;;5050247;28;20524;-77
2022/08/21 01:56:53;;;;;;;13.10;7.53;;;;;;;;;;5050903;28;20615;-77
2022/08/21 01:59:20;;;;;;;12.80;7.50;;;;;;;;;;5032995;28;20123;-76
2022/08/21 02:01:46;;;;;;;13.23;7.00;;;;;;;;;;5027790;28;20044;-76
2022/08/21 02:04:12;;;;;;;18.23;7.80;;;;;;;;;;5033734;28;20041;-76
2022/08/21 02:06:39;;;;;;;12.70;6.88;;;;;;;;;;5050466;28;20515;-76
2022/08/21 02:09:05;;;;;;;13.60;7.13;;;;;;;;;;5053830;28;20036;-76
2022/08/21 02:11:32;;;;;;;12.38;7.22;;;;;;;;;;5038025;28;20052;-76
2022/08/21 02:13:58;;;;;;;13.20;7.07;;;;;;;;;;5054614;28;20044;-76
2022/08/21 02:16:24;;;;;;;14.38;7.25;;;;;;;;;;5055046;28;20405;-76
2022/08/21 02:18:51;;;;;;;14.60;6.47;;;;;;;;;;5054358;28;20115;-76
2022/08/21 02:21:17;;;;;;;14.07;5.95;;;;;;;;;;5037869;28;20112;-76
2022/08/21 02:23:43;;;;;;;14.32;7.25;;;;;;;;;;5054861;28;20468;-76
2022/08/21 02:26:09;;;;;;;10.45;7.05;;;;;;;;;;5037723;28;20056;-76
2022/08/21 02:28:36;;;;;;;14.13;7.45;;;;;;;;;;5054333;28;20123;-77
2022/08/21 02:31:02;;;;;;;10.07;6.75;;;;;;;;;;5054262;28;20036;-77
2022/08/21 02:33:29;;;;;;;15.15;7.63;;;;;;;;;;5037682;28;20041;-77
2022/08/21 02:35:56;;;;;;;15.60;8.07;;;;;;;;;;5054139;28;20121;-77
2022/08/21 02:38:26;;;;;;;14.13;7.80;;;;;;;;;;5037126;28;20037;-76
2022/08/21 02:40:53;;;;;;;14.40;7.65;;;;;;;;;;5054136;28;20087;-76
2022/08/21 02:43:20;;;;;;;15.98;7.90;;;;;;;;;;5053851;28;20086;-76
2022/08/21 02:45:46;;;;;;;17.65;8.45;;;;;;;;;;5054559;28;20041;-76
2022/08/21 02:48:14;;;;;;;18.45;8.30;;;;;;;;;;5037001;28;20052;-76
2022/08/21 02:50:48;;;;;;;11.80;7.20;;;;;;;;;;5054267;28;20060;-76
2022/08/21 02:53:16;;;;;;;18.33;8.32;;;;;;;;;;5053531;28;20048;-76
2022/08/21 02:55:43;;;;;;;17.63;8.40;;;;;;;;;;5037533;28;20044;-76
2022/08/21 02:58:09;;;;;;;15.35;8.00;;;;;;;;;;5053742;28;20049;-76
2022/08/21 03:00:36;;;;;;;13.40;7.88;;;;;;;;;;5053467;28;20045;-76
2022/08/21 03:03:03;;;;;;;14.15;7.05;;;;;;;;;;5053821;28;20396;-76
2022/08/21 03:05:31;;;;;;;14.60;7.25;;;;;;;;;;5054134;28;20440;-76
2022/08/21 03:07:57;;;;;;;12.80;7.50;;;;;;;;;;5021237;28;20504;-76
2022/08/21 03:10:24;;;;;;;17.45;7.65;;;;;;;;;;5053690;28;20044;-75
2022/08/21 03:12:51;;;;;;;14.18;7.70;;;;;;;;;;5053547;28;20078;-76
2022/08/21 03:15:18;;;;;;;15.40;8.30;;;;;;;;;;5053057;28;20049;-76
2022/08/21 03:17:45;;;;;;;13.88;8.07;;;;;;;;;;5053468;28;20077;-76
2022/08/21 03:20:13;;;;;;;15.95;7.97;;;;;;;;;;5053023;28;20374;-76
2022/08/21 03:22:40;;;;;;;12.77;8.10;;;;;;;;;;5053203;28;20037;-76
2022/08/21 03:25:07;;;;;;;15.38;8.32;;;;;;;;;;5053459;28;20489;-76
2022/08/21 03:27:33;;;;;;;17.52;8.90;;;;;;;;;;5052738;28;20041;-76
2022/08/21 03:29:59;;;;;;;13.13;7.93;;;;;;;;;;5053195;28;20053;-76
2022/08/21 03:32:26;;;;;;;12.98;7.75;;;;;;;;;;5053242;28;20461;-76
2022/08/21 03:34:52;;;;;;;17.58;8.20;;;;;;;;;;5053152;28;20138;-75
2022/08/21 03:37:18;;;;;;;14.15;7.75;;;;;;;;;;5053134;28;20041;-75
2022/08/21 03:39:44;;;;;;;14.90;8.43;;;;;;;;;;5052677;28;20126;-76
2022/08/21 03:42:10;;;;;;;18.63;8.18;;;;;;;;;;5020108;28;20043;-76
2022/08/21 03:44:37;;;;;;;13.60;7.90;;;;;;;;;;5053770;28;20037;-76
2022/08/21 03:47:03;;;;;;;12.13;7.45;;;;;;;;;;5053239;28;20055;-76
2022/08/21 03:49:30;;;;;;;13.30;8.15;;;;;;;;;;5035574;28;20099;-76
2022/08/21 03:51:56;;;;;;;13.98;7.68;;;;;;;;;;5036498;28;20106;-76
2022/08/21 03:54:22;;;;;;;13.93;8.27;;;;;;;;;;5052313;28;20497;-76
2022/08/21 03:56:49;;;;;;;13.13;8.15;;;;;;;;;;5036032;28;20440;-76
2022/08/21 03:59:16;;;;;;;14.27;8.27;;;;;;;;;;5052644;28;20041;-76
2022/08/21 04:01:51;;;;;;;13.25;7.80;;;;;;;;;;5051432;28;20120;-76
2022/08/21 04:04:17;;;;;;;;;;;;;;;;;;5023166;28;20129;-76
2022/08/21 04:06:43;;;;;;;14.07;7.78;;;;;;;;;;5032874;28;20004;-76
2022/08/21 04:09:09;;;;;;;18.70;8.43;;;;;;;;;;5043282;28;20049;-76
2022/08/21 04:11:36;;;;;;;16.67;8.60;;;;;;;;;;5035268;28;20075;-76
2022/08/21 04:14:03;;;;;;;15.88;8.23;;;;;;;;;;5035912;28;20048;-76
2022/08/21 04:16:29;;;;;;;15.63;8.65;;;;;;;;;;5052120;28;20202;-76
2022/08/21 04:18:55;;;;;;;14.85;8.45;;;;;;;;;;5036175;28;20033;-76
2022/08/21 04:21:21;;;;;;;14.68;7.70;;;;;;;;;;5052340;28;20036;-76
2022/08/21 04:23:47;;;;;;;14.25;8.00;;;;;;;;;;5052273;28;20077;-77
2022/08/21 04:26:13;;;;;;;16.95;9.07;;;;;;;;;;5052222;28;20065;-77
2022/08/21 04:28:39;;;;;;;13.43;7.75;;;;;;;;;;5051639;28;20448;-76
2022/08/21 04:31:05;;;;;;;15.10;8.65;;;;;;;;;;5051549;28;20477;-76
2022/08/21 04:33:31;;;;;;;12.93;7.28;;;;;;;;;;5052034;28;20051;-76
2022/08/21 04:35:57;;;;;;;13.15;8.15;;;;;;;;;;5051987;28;20063;-76
2022/08/21 04:38:23;;;;;;;13.80;7.47;;;;;;;;;;5035432;28;20033;-76
2022/08/21 04:40:50;;;;;;;17.33;7.90;;;;;;;;;;5051744;28;20055;-77
2022/08/21 04:43:18;;;;;;;13.98;7.88;;;;;;;;;;5052131;28;20041;-77
2022/08/21 04:45:47;;;;;;;14.75;8.18;;;;;;;;;;5051682;28;20040;-77
2022/08/21 04:48:14;;;;;;;13.07;7.88;;;;;;;;;;5051832;28;20053;-77
2022/08/21 04:50:53;;;;;;;14.15;7.57;;;;;;;;;;5051204;28;20056;-76
2022/08/21 04:53:31;;;;;;;9.88;6.25;;;;;;;;;;5035363;28;20044;-77
2022/08/21 04:55:58;;;;;;;13.75;7.05;;;;;;;;;;5051622;28;20045;-77
2022/08/21 04:58:26;;;;;;;11.75;6.75;;;;;;;;;;5035112;28;20485;-77
2022/08/21 05:00:52;;;;;;;13.30;6.30;;;;;;;;;;5051016;28;20094;-76
2022/08/21 05:03:18;;;;;;;13.82;6.03;;;;;;;;;;5051771;28;20040;-76
2022/08/21 05:05:45;;;;;;;10.77;5.82;;;;;;;;;;5051291;28;20179;-76
2022/08/21 05:08:13;;;;;;;13.75;6.45;;;;;;;;;;5051262;28;20068;-76
2022/08/21 05:10:39;;;;;;;11.80;5.90;;;;;;;;;;5050891;28;20036;-77
2022/08/21 05:13:06;;;;;;;8.60;4.70;;;;;;;;;;5034950;28;20378;-77
2022/08/21 05:15:32;;;;;;;13.48;5.50;;;;;;;;;;5050844;28;20497;-76
2022/08/21 05:17:58;;;;;;;13.25;5.45;;;;;;;;;;5018472;28;20040;-77
2022/08/21 05:20:24;;;;;;;12.18;5.47;;;;;;;;;;5050975;28;20104;-77
2022/08/21 05:22:51;;;;;;;10.50;5.25;;;;;;;;;;5050932;28;20041;-76
2022/08/21 05:25:17;;;;;;;8.30;5.20;;;;;;;;;;5034897;28;20559;-77
2022/08/21 05:27:43;;;;;;;10.27;5.60;;;;;;;;;;5050784;28;20044;-76
2022/08/21 05:30:10;;;;;;;9.90;4.93;;;;;;;;;;5050839;28;20049;-77
2022/08/21 05:32:36;;;;;;;11.05;4.78;;;;;;;;;;5034490;28;20037;-77
2022/08/21 05:35:03;;;;;;;8.40;4.60;;;;;;;;;;5034509;28;20065;-76
2022/08/21 05:37:29;;;;;;;9.73;4.60;;;;;;;;;;5051500;28;20040;-77
2022/08/21 05:39:55;;;;;;;11.20;5.25;;;;;;;;;;5051811;28;20079;-77
2022/08/21 05:42:21;;;;;;;7.28;4.40;;;;;;;;;;5052299;28;20033;-76
2022/08/21 05:44:47;;;;;;;10.05;4.13;;;;;;;;;;5051769;28;20045;-76
2022/08/21 05:47:14;;;;;;;10.45;4.50;;;;;;;;;;5051321;28;20040;-77
2022/08/21 05:49:40;;;;;;;9.30;4.22;;;;;;;;;;5050539;28;20509;-77
2022/08/21 05:52:06;;;;;;;9.55;4.40;;;;;;;;;;5052072;28;20067;-77
2022/08/21 05:54:32;;;;;;;10.52;4.60;;;;;;;;;;5050750;28;20052;-77
2022/08/21 05:56:59;;;;;;;9.07;4.07;;;;;;;;;;5034011;28;20057;-77
2022/08/21 05:59:25;;;;;;;8.82;4.72;;;;;;;;;;5034382;28;20384;-77
2022/08/21 06:01:52;;;;;;;7.07;4.10;;;;;;;;;;5050681;28;20037;-77
2022/08/21 06:04:18;;;;;;;10.57;4.22;;;;;;;;;;5050662;28;20045;-78
2022/08/21 06:06:44;;;;;;;8.60;4.38;;;;;;;;;;5050410;28;20037;-78
2022/08/21 06:09:10;;;;;;;8.85;3.90;;;;;;;;;;5034254;28;20044;-78
2022/08/21 06:11:36;;;;;;;6.82;3.95;;;;;;;;;;5050835;28;20041;-78
2022/08/21 06:14:03;;;;;;;8.38;4.10;;;;;;;;;;5050273;28;20048;-78
2022/08/21 06:16:30;;;;;;;8.63;3.63;;;;;;;;;;5034272;28;20462;-78
2022/08/21 06:18:56;;;;;;;10.40;3.78;;;;;;;;;;5050178;28;20121;-78
2022/08/21 06:21:22;;;;;;;6.47;3.60;;;;;;;;;;5050957;28;20512;-77
2022/08/21 06:23:48;;;;;;;7.57;3.28;;;;;;;;;;5050226;28;20044;-78
2022/08/21 06:26:14;;;;;;;7.15;3.33;;;;;;;;;;5050983;28;20041;-78
2022/08/21 06:28:41;;;;;;;9.80;3.47;;;;;;;;;;5050412;28;20049;-76
2022/08/21 06:31:14;;;;;;;11.05;3.90;;;;;;;;;;5050346;28;20033;-76
2022/08/21 06:33:41;;;;;;;6.88;3.17;;;;;;;;;;5050696;28;20111;-76
2022/08/21 06:36:07;;;;;;;6.32;3.13;;;;;;;;;;5050317;28;20041;-76
2022/08/21 06:38:34;;;;;;;7.07;3.13;;;;;;;;;;5034208;28;20174;-76
2022/08/21 06:41:00;;;;;;;7.72;3.30;;;;;;;;;;5033814;28;20041;-76
2022/08/21 06:43:26;;;;;;;7.25;3.17;;;;;;;;;;5034054;28;20033;-76
2022/08/21 06:45:52;;;;;;;9.65;3.40;;;;;;;;;;5033591;28;20036;-76
2022/08/21 06:48:18;;;;;;;7.20;3.10;;;;;;;;;;5050529;28;20590;-76
2022/08/21 06:50:44;;;;;;;8.02;3.10;;;;;;;;;;5050241;28;20049;-76
2022/08/21 06:53:12;;;;;;;7.25;3.20;;;;;;;;;;5050615;28;20394;-77
2022/08/21 06:55:38;;;;;;;6.13;3.17;;;;;;;;;;5055046;28;20041;-77
2022/08/21 06:58:05;;;;;;;7.43;2.90;;;;;;;;;;5036811;28;20037;-76
2022/08/21 07:00:31;;;;;;;10.30;3.13;;;;;;;;;;5053712;28;20045;-77
2022/08/21 07:02:58;;;;;;;7.32;2.65;;;;;;;;;;5053438;28;20040;-76
2022/08/21 07:05:26;;;;;;;7.70;2.95;;;;;;;;;;5037194;28;20044;-76
2022/08/21 07:07:52;;;;;;;8.18;3.03;;;;;;;;;;5053201;28;20043;-76
2022/08/21 07:10:18;;;;;;;7.75;3.20;;;;;;;;;;5037081;28;20045;-77
2022/08/21 07:12:44;;;;;;;8.82;2.90;;;;;;;;;;5053686;28;20045;-77
2022/08/21 07:15:11;;;;;;;8.75;2.90;;;;;;;;;;5053196;28;20126;-77
2022/08/21 07:17:37;;;;;;;8.15;2.42;;;;;;;;;;5053720;28;20037;-78
2022/08/21 07:20:04;;;;;;;6.03;2.63;;;;;;;;;;5053260;28;20175;-77
2022/08/21 07:22:30;;;;;;;6.07;2.50;;;;;;;;;;5053442;28;20048;-78
2022/08/21 07:24:56;;;;;;;7.53;2.70;;;;;;;;;;5054099;28;20040;-78
2022/08/21 07:27:22;;;;;;;9.57;2.70;;;;;;;;;;5053881;28;20045;-78
2022/08/21 07:29:48;;;;;;;8.95;2.40;;;;;;;;;;5053746;28;20051;-78
2022/08/21 07:32:14;;;;;;;6.70;2.13;;;;;;;;;;5053124;28;20084;-78
2022/08/21 07:34:41;;;;;;;7.25;2.38;;;;;;;;;;5053171;28;20158;-78
2022/08/21 07:37:07;;;;;;;6.82;2.10;;;;;;;;;;5052713;28;20075;-78
2022/08/21 07:39:33;;;;;;;7.63;2.22;;;;;;;;;;5036599;28;20033;-78
2022/08/21 07:41:59;;;;;;;7.90;2.38;;;;;;;;;;5052633;28;20091;-77
2022/08/21 07:44:25;;;;;;;7.47;2.17;;;;;;;;;;5053249;28;20049;-78
2022/08/21 07:46:51;;;;;;;6.18;2.35;;;;;;;;;;5052450;28;20040;-77
2022/08/21 07:49:17;;;;;;;7.13;2.80;;;;;;;;;;5036389;28;20068;-78
2022/08/21 07:51:45;;;;;;;7.38;2.20;;;;;;;;;;5053151;28;20052;-78
2022/08/21 07:54:11;;;;;;;7.38;1.95;;;;;;;;;;5052436;28;20061;-78
2022/08/21 07:56:37;;;;;;;8.85;2.40;;;;;;;;;;5052790;28;20109;-78
2022/08/21 07:59:03;;;;;;;7.22;2.30;;;;;;;;;;5052438;28;20045;-78
2022/08/21 08:01:30;;;;;;;6.03;2.40;;;;;;;;;;5036079;28;20072;-78
2022/08/21 08:03:57;;;;;;;7.47;2.40;;;;;;;;;;5035673;28;20094;-78
2022/08/21 08:06:23;;;;;;;7.18;2.33;;;;;;;;;;5036131;28;20094;-78
2022/08/21 08:08:50;;;;;;;8.32;2.85;;;;;;;;;;5053066;28;20049;-78
2022/08/21 08:11:16;;;;;;;8.68;2.10;;;;;;;;;;5052283;28;20043;-78
2022/08/21 08:13:47;;;;;;;6.80;2.30;;;;;;;;;;5052510;28;20041;-78
2022/08/21 08:16:13;;;;;;;8.90;2.60;;;;;;;;;;5035581;28;20037;-78
2022/08/21 08:18:41;;;;;;;6.72;2.40;;;;;;;;;;5035836;28;20037;-78
2022/08/21 08:21:08;;;;;;;7.85;2.58;;;;;;;;;;5035688;28;20591;-77
2022/08/21 08:23:34;;;;;;;8.40;3.00;;;;;;;;;;5035791;28;20037;-78
2022/08/21 08:26:02;;;;;;;6.88;2.47;;;;;;;;;;5035978;28;20045;-77
2022/08/21 08:28:28;;;;;;;9.32;2.72;;;;;;;;;;5052559;28;20119;-77
2022/08/21 08:30:55;;;;;;;11.23;3.08;;;;;;;;;;5052054;28;20068;-78
2022/08/21 08:33:21;;;;;;;7.13;2.58;;;;;;;;;;5051991;28;20091;-78
2022/08/21 08:35:48;;;;;;;7.57;2.08;;;;;;;;;;5035115;28;20045;-77
2022/08/21 08:38:18;;;;;;;9.13;2.45;;;;;;;;;;5051806;28;20454;-78
2022/08/21 08:40:48;;;;;;;8.70;2.08;;;;;;;;;;5052157;28;20045;-78
2022/08/21 08:43:14;;;;;;;7.57;2.20;;;;;;;;;;5034713;28;20041;-77
2022/08/21 08:45:42;;;;;;;8.98;2.33;;;;;;;;;;5051869;28;20084;-78
2022/08/21 08:48:10;;;;;;;7.13;2.40;;;;;;;;;;5051283;28;20053;-78
2022/08/21 08:50:36;;;;;;;8.27;2.40;;;;;;;;;;5035567;28;20053;-78
2022/08/21 08:53:05;;;;;;;9.13;2.67;;;;;;;;;;5051695;28;20041;-78
2022/08/21 08:55:35;;;;;;;9.20;2.50;;;;;;;;;;5051615;28;20120;-77
2022/08/21 08:58:02;;;;;;;8.82;2.80;;;;;;;;;;5034746;28;20037;-78
2022/08/21 09:00:29;;;;;;;11.02;2.75;;;;;;;;;;5052209;28;20441;-77
2022/08/21 09:02:56;;;;;;;9.13;2.58;;;;;;;;;;5051436;28;20086;-77
2022/08/21 09:05:43;;;;;;;10.75;2.60;;;;;;;;;;5051284;28;20095;-78
2022/08/21 09:08:28;;;;;;;9.10;2.95;;;;;;;;;;5035040;28;20547;-78
2022/08/21 09:11:05;;;;;;;9.57;2.40;;;;;;;;;;5051609;28;20079;-78
2022/08/21 09:13:45;;;;;;;12.95;2.50;;;;;;;;;;5051461;28;20099;-78
2022/08/21 09:16:24;;;;;;;13.48;2.88;;;;;;;;;;5051073;28;20041;-78
2022/08/21 09:18:50;;;;;;;11.48;2.80;;;;;;;;;;5051002;28;20033;-78
2022/08/21 09:21:28;;;;;;;9.20;2.60;;;;;;;;;;5050922;28;20033;-78
2022/08/21 09:24:17;;;;;;;9.60;2.40;;;;;;;;;;5051384;28;20136;-77
2022/08/21 09:26:43;;;;;;;8.93;2.42;;;;;;;;;;5035154;28;20048;-77
2022/08/21 09:29:11;;;;;;;9.77;2.70;;;;;;;;;;5034318;28;20132;-78
2022/08/21 09:31:37;;;;;;;10.15;2.13;;;;;;;;;;5051984;28;20045;-78
2022/08/21 09:34:06;;;;;;;8.13;2.30;;;;;;;;;;5051699;28;20043;-78
2022/08/21 09:36:42;;;;;;;7.85;2.40;;;;;;;;;;5052258;28;20082;-78
2022/08/21 09:39:10;;;;;;;8.27;2.20;;;;;;;;;;5034809;28;20041;-78
2022/08/21 09:41:37;;;;;;;7.18;2.10;;;;;;;;;;5051835;28;20040;-78
2022/08/21 09:44:04;;;;;;;10.98;2.47;;;;;;;;;;5051730;28;20127;-78
2022/08/21 09:46:30;;;;;;;9.27;2.05;;;;;;;;;;5051290;28;20041;-77
2022/08/21 09:48:58;;;;;;;9.90;2.38;;;;;;;;;;5034760;28;20136;-78
2022/08/21 09:51:29;;;;;;;7.93;1.88;;;;;;;;;;5051049;28;20045;-78
2022/08/21 09:54:05;;;;;;;8.05;2.03;;;;;;;;;;5034717;28;20382;-78
2022/08/21 09:59:31;;;;;;;8.38;2.10;;;;;;;;;;5050608;28;20041;-77
2022/08/21 10:02:00;;;;;;;5.43;2.08;;;;;;;;;;5051098;28;20044;-78
2022/08/21 10:04:31;;;;;;;9.60;1.88;;;;;;;;;;5050734;28;20493;-77
2022/08/21 10:07:09;;;;;;;7.38;2.10;;;;;;;;;;5050916;28;20552;-77
2022/08/21 10:09:36;;;;;;;13.02;2.03;;;;;;;;;;5050550;28;20041;-78
2022/08/21 10:12:08;;;;;;;9.70;2.20;;;;;;;;;;5034327;28;20378;-77
2022/08/21 10:14:45;;;;;;;8.23;1.80;;;;;;;;;;5033930;28;20047;-77
2022/08/21 10:17:18;;;;;;;5.95;1.73;;;;;;;;;;5050263;28;20037;-77
2022/08/21 10:20:02;;;;;;;7.97;2.00;;;;;;;;;;5050752;28;20541;-77
2022/08/21 10:22:34;;;;;;;7.13;1.90;;;;;;;;;;5050509;28;20904;-77
2022/08/21 10:25:10;;;;;;;7.45;2.08;;;;;;;;;;5051081;28;20048;-77
2022/08/21 10:27:40;;;;;;;8.90;2.20;;;;;;;;;;5050875;28;20052;-77
2022/08/21 10:30:08;;;;;;;11.02;2.40;;;;;;;;;;5053553;28;20052;-76
2022/08/21 10:32:40;;;;;;;7.75;1.80;;;;;;;;;;5055675;28;20048;-77
2022/08/21 10:35:25;;;;;;;9.20;1.90;;;;;;;;;;5055599;28;20397;-76
2022/08/21 10:38:00;;;;;;;8.40;1.88;;;;;;;;;;5041408;28;20049;-77
2022/08/21 10:40:45;;;;;;;7.43;2.08;;;;;;;;;;5054470;28;20068;-77
2022/08/21 10:43:17;;;;;;;6.60;1.88;;;;;;;;;;5042777;28;20036;-76
2022/08/21 10:45:43;;;;;;;6.25;2.03;;;;;;;;;;5054023;28;20044;-76
2022/08/21 10:48:16;;;;;;;6.95;1.85;;;;;;;;;;5037746;28;20475;-76
2022/08/21 10:50:48;;;;;;;8.18;1.77;;;;;;;;;;5037311;28;20110;-76
2022/08/21 10:53:32;;;;;;;6.88;1.90;;;;;;;;;;5037449;28;20495;-77
2022/08/21 10:56:10;;;;;;;4.93;1.50;;;;;;;;;;5055830;28;20447;-77
2022/08/21 10:58:38;;;;;;;7.13;1.60;;;;;;;;;;5055326;28;20041;-76
2022/08/21 11:01:09;;;;;;;9.20;1.90;;;;;;;;;;5038186;28;20068;-76
2022/08/21 11:03:36;;;;;;;9.38;1.75;;;;;;;;;;5046077;28;20041;-79
2022/08/21 11:06:14;;;;;;;8.35;1.95;;;;;;;;;;5050952;28;20124;-77
2022/08/21 11:08:43;;;;;;;10.25;1.90;;;;;;;;;;5053708;28;20048;-77
2022/08/21 11:11:21;;;;;;;6.18;1.70;;;;;;;;;;5054219;28;20409;-78
2022/08/21 11:13:59;;;;;;;8.45;1.83;;;;;;;;;;5054217;28;20388;-75
2022/08/21 11:16:40;;;;;;;8.50;1.90;;;;;;;;;;5053257;28;20045;-76
2022/08/21 11:19:26;;;;;;;5.68;1.63;;;;;;;;;;5037845;28;20465;-75
2022/08/21 11:22:11;;;;;;;8.85;2.10;;;;;;;;;;5054174;28;20504;-77
2022/08/21 11:25:00;;;;;;;22.00;2.97;;;;;;;;;;5055639;28;20128;-77
2022/08/21 11:27:29;;;;;;;8.70;1.92;;;;;;;;;;5053709;28;20458;-76
2022/08/21 11:29:59;;;;;;;7.45;1.77;;;;;;;;;;5037091;28;20040;-77
2022/08/21 11:32:44;;;;;;;8.98;2.10;;;;;;;;;;5053142;28;20457;-77
2022/08/21 11:35:13;;;;;;;6.88;2.00;;;;;;;;;;5053508;28;20523;-77
2022/08/21 11:37:52;;;;;;;9.60;2.28;;;;;;;;;;5053046;28;20134;-77
2022/08/21 11:40:21;;;;;;;10.07;2.53;;;;;;;;;;5052321;28;20112;-77
2022/08/21 11:42:52;;;;;;;7.50;2.35;;;;;;;;;;5053257;28;20044;-77
2022/08/21 11:45:24;;;;;;;7.07;2.35;;;;;;;;;;5052883;28;20543;-77
2022/08/21 11:47:59;;;;;;;11.35;2.65;;;;;;;;;;5052687;28;20057;-77
2022/08/21 11:50:29;;;;;;;9.10;2.45;;;;;;;;;;5036408;28;20489;-77
2022/08/21 11:52:59;;;;;;;8.13;2.00;;;;;;;;;;5052535;28;20048;-77
2022/08/21 11:55:31;;;;;;;10.15;2.35;;;;;;;;;;5052523;28;20516;-77
2022/08/21 11:58:16;;;;;;;7.13;2.10;;;;;;;;;;5052720;28;20086;-77
2022/08/21 12:00:43;;;;;;;;;;;;;;;;;;5036289;28;20045;-77
2022/08/21 12:03:13;;;;;;;10.50;2.42;;;;;;;;;;5052913;28;20314;-77
2022/08/21 12:05:44;;;;;;;6.43;2.10;;;;;;;;;;5052795;28;20056;-77
2022/08/21 12:08:10;;;;;;;10.82;2.42;;;;;;;;;;5035767;28;20093;-78
2022/08/21 12:10:39;;;;;;;6.57;2.08;;;;;;;;;;5036125;28;20120;-78
2022/08/21 12:13:25;;;;;;;6.00;1.45;;;;;;;;;;5053811;28;20386;-77
2022/08/21 12:15:52;;;;;;;7.78;2.13;;;;;;;;;;5040266;28;20085;-78
2022/08/21 12:18:23;;;;;;;8.02;1.80;;;;;;;;;;5052970;28;20508;-78
2022/08/21 12:21:08;;;;;;;9.93;2.17;;;;;;;;;;5039281;28;20119;-77
2022/08/21 12:23:44;;;;;;;6.70;1.80;;;;;;;;;;5035959;28;20041;-78
2022/08/21 12:26:14;;;;;;;7.28;2.25;;;;;;;;;;5052499;28;20037;-77
2022/08/21 12:28:41;;;;;;;6.95;1.70;;;;;;;;;;5051909;28;20128;-77
2022/08/21 12:31:17;;;;;;;6.88;1.83;;;;;;;;;;5052537;28;20503;-78
2022/08/21 12:33:50;;;;;;;5.07;1.58;;;;;;;;;;5052019;28;20420;-78
2022/08/21 12:36:21;;;;;;;9.13;2.22;;;;;;;;;;5052405;28;20033;-77
2022/08/21 12:38:52;;;;;;;6.47;1.75;;;;;;;;;;5051803;28;20049;-78
2022/08/21 12:41:41;;;;;;;8.93;2.03;;;;;;;;;;5052615;28;20461;-78
2022/08/21 12:44:13;;;;;;;7.07;1.85;;;;;;;;;;5052118;28;20048;-77
2022/08/21 12:46:49;;;;;;;8.80;1.90;;;;;;;;;;5051698;28;20070;-78
2022/08/21 12:49:36;;;;;;;7.85;1.80;;;;;;;;;;5034984;28;20064;-78
2022/08/21 12:52:19;;;;;;;9.77;2.10;;;;;;;;;;5051270;28;20412;-78
2022/08/21 12:54:46;;;;;;;8.23;2.28;;;;;;;;;;5051735;28;20049;-77
2022/08/21 12:57:24;;;;;;;7.05;2.10;;;;;;;;;;5051891;28;20060;-77
2022/08/21 12:59:59;;;;;;;8.05;2.20;;;;;;;;;;5051499;28;20045;-77
2022/08/21 13:02:37;;;;;;;6.70;2.03;;;;;;;;;;5051736;28;20072;-78
2022/08/21 13:05:05;;;;;;;7.70;2.20;;;;;;;;;;5038155;28;20084;-78
2022/08/21 13:07:33;;;;;;;6.63;2.00;;;;;;;;;;5051044;28;20051;-77
2022/08/21 13:09:59;;;;;;;7.63;2.05;;;;;;;;;;5034670;28;20044;-78
2022/08/21 13:12:26;;;;;;;5.53;1.90;;;;;;;;;;5051365;28;20051;-77
2022/08/21 13:14:52;;;;;;;7.75;2.05;;;;;;;;;;5050876;28;20041;-77
2022/08/21 13:17:21;;;;;;;9.93;2.40;;;;;;;;;;5051785;28;20044;-75
2022/08/21 13:20:01;;;;;;;8.00;2.10;;;;;;;;;;5034662;28;20041;-78
2022/08/21 13:22:36;;;;;;;6.68;1.98;;;;;;;;;;5051547;28;20044;-75
2022/08/21 13:25:03;;;;;;;11.00;2.20;;;;;;;;;;5051276;28;20175;-76
2022/08/21 13:27:30;;;;;;;5.65;1.60;;;;;;;;;;5051093;28;20048;-76
2022/08/21 13:30:13;;;;;;;8.63;2.10;;;;;;;;;;5051534;28;20091;-76
2022/08/21 13:32:41;;;;;;;10.27;1.92;;;;;;;;;;5050620;28;20045;-76
2022/08/21 13:35:09;;;;;;;7.25;1.92;;;;;;;;;;5034425;28;20402;-77
2022/08/21 13:37:36;;;;;;;7.60;2.00;;;;;;;;;;5050754;28;20032;-77
2022/08/21 13:40:02;;;;;;;6.82;1.80;;;;;;;;;;5051269;28;20557;-77
2022/08/21 13:42:28;;;;;;;8.48;2.30;;;;;;;;;;5051305;28;20076;-78
2022/08/21 13:44:54;;;;;;;6.65;1.63;;;;;;;;;;5050835;28;20045;-77
2022/08/21 13:47:20;;;;;;;7.95;1.60;;;;;;;;;;5051203;28;20378;-78
2022/08/21 13:49:48;;;;;;;7.65;1.95;;;;;;;;;;5051613;28;20106;-78
2022/08/21 13:52:19;;;;;;;6.97;1.80;;;;;;;;;;5034392;28;20119;-78
2022/08/21 13:54:53;;;;;;;5.80;1.88;;;;;;;;;;5033724;28;20045;-78
2022/08/21 13:57:24;;;;;;;7.95;2.08;;;;;;;;;;5050892;28;20059;-77
2022/08/21 13:59:51;;;;;;;8.70;1.98;;;;;;;;;;5033735;28;20033;-78
2022/08/21 14:02:23;;;;;;;6.38;1.60;;;;;;;;;;5050819;28;20033;-78
2022/08/21 14:04:58;;;;;;;5.78;1.60;;;;;;;;;;5054602;28;20190;-78
2022/08/21 14:07:27;;;;;;;7.28;1.63;;;;;;;;;;5038310;28;20049;-78
2022/08/21 14:09:54;;;;;;;7.30;2.38;;;;;;;;;;5054276;28;20573;-77
2022/08/21 14:12:26;;;;;;;7.10;1.70;;;;;;;;;;5038426;28;20504;-77
2022/08/21 14:14:53;;;;;;;5.45;1.45;;;;;;;;;;5054343;28;20044;-77
2022/08/21 14:17:29;;;;;;;6.30;1.60;;;;;;;;;;5037997;28;20033;-77
2022/08/21 14:19:55;;;;;;;5.68;1.50;;;;;;;;;;5054559;28;21047;-78
2022/08/21 14:22:40;;;;;;;5.68;1.67;;;;;;;;;;5054671;28;20044;-78
2022/08/21 14:25:10;;;;;;;7.72;1.90;;;;;;;;;;5054324;28;20048;-77
2022/08/21 14:27:38;;;;;;;7.53;1.73;;;;;;;;;;5041285;28;20110;-78
2022/08/21 14:30:10;;;;;;;6.10;1.60;;;;;;;;;;5054621;28;20052;-77
2022/08/21 14:32:41;;;;;;;6.07;1.55;;;;;;;;;;5054363;28;20044;-78
2022/08/21 14:35:07;;;;;;;4.88;1.40;;;;;;;;;;5037703;28;20044;-78
2022/08/21 14:37:33;;;;;;;5.13;1.58;;;;;;;;;;5054186;28;20063;-78
2022/08/21 14:39:59;;;;;;;6.35;1.63;;;;;;;;;;5054084;28;20366;-77
2022/08/21 14:42:26;;;;;;;4.47;1.58;;;;;;;;;;5054363;28;20080;-78
2022/08/21 14:44:55;;;;;;;6.13;1.67;;;;;;;;;;5053782;28;20051;-77
2022/08/21 14:47:21;;;;;;;5.68;1.40;;;;;;;;;;5054266;28;20095;-77
2022/08/21 14:49:47;;;;;;;5.75;1.52;;;;;;;;;;5053659;28;20088;-77
2022/08/21 14:52:13;;;;;;;6.63;1.60;;;;;;;;;;5054592;28;20051;-77